Time;durP1;ratioP1;P1;durP2;ratioP2;P2;SDS_P1;SDS_P2;PMS_P1;PMS_P2;Temp;Humidity;BMP_temperature;BMP_pressure;BME280_temperature;BME280_humidity;BME280_pressure;Samples;Min_cycle;Max_cycle;Signal;HPM_P1;HPM_P2
2023/01/25 00:00:14;;;;;;;0.30;0.30;;;;;;;9.36;52.49;103866.78;4992545;28;20554;-71
2023/01/25 00:02:40;;;;;;;0.20;0.20;;;;;;;9.44;52.60;103866.03;4992480;28;20038;-71
2023/01/25 00:05:05;;;;;;;0.30;0.30;;;;;;;9.46;52.69;103866.75;4995554;28;20035;-71
2023/01/25 00:07:31;;;;;;;0.40;0.40;;;;;;;9.50;52.58;103863.63;4992199;28;20394;-71
2023/01/25 00:09:56;;;;;;;0.32;0.32;;;;;;;9.28;52.82;103863.94;4979518;28;20046;-73
2023/01/25 00:12:21;;;;;;;0.30;0.30;;;;;;;9.49;52.50;103864.63;4975296;28;20073;-72
2023/01/25 00:14:47;;;;;;;0.30;0.30;;;;;;;9.56;52.64;103859.53;4975352;28;20057;-71
2023/01/25 00:17:12;;;;;;;0.30;0.30;;;;;;;9.54;51.94;103864.19;4992528;28;20038;-72
2023/01/25 00:19:38;;;;;;;0.38;0.38;;;;;;;9.52;52.18;103866.19;4994378;28;20030;-73
2023/01/25 00:22:03;;;;;;;0.30;0.30;;;;;;;9.30;52.11;103859.28;4994242;28;20090;-72
2023/01/25 00:24:28;;;;;;;0.30;0.30;;;;;;;9.72;51.55;103852.56;4995209;28;20034;-72
2023/01/25 00:26:54;;;;;;;0.20;0.20;;;;;;;9.82;51.23;103852.53;4994697;28;20042;-72
2023/01/25 00:29:19;;;;;;;0.30;0.30;;;;;;;9.59;51.61;103851.19;4994801;28;20122;-71
2023/01/25 00:32:01;;;;;;;0.40;0.40;;;;;;;10.07;51.15;103851.00;4994849;28;20117;-71
2023/01/25 00:34:28;;;;;;;0.32;0.32;;;;;;;9.44;52.21;103856.16;4994511;28;20066;-71
2023/01/25 00:36:56;;;;;;;0.35;0.35;;;;;;;9.85;51.29;103846.03;4995160;28;20493;-72
2023/01/25 00:39:23;;;;;;;0.20;0.20;;;;;;;9.73;51.32;103845.34;4994420;28;20129;-71
2023/01/25 00:41:49;;;;;;;0.30;0.30;;;;;;;9.59;51.34;103853.88;4994515;28;20137;-71
2023/01/25 00:44:14;;;;;;;0.30;0.30;;;;;;;9.77;51.34;103858.34;4994017;28;20549;-72
2023/01/25 00:46:40;;;;;;;0.20;0.20;;;;;;;9.80;51.05;103850.97;4993973;28;20061;-72
2023/01/25 00:49:06;;;;;;;0.30;0.30;;;;;;;9.52;51.13;103858.13;4994378;28;20026;-72
2023/01/25 00:51:31;;;;;;;0.30;0.30;;;;;;;9.60;51.55;103847.50;4994415;28;20018;-72
2023/01/25 00:53:57;;;;;;;0.20;0.20;;;;;;;9.32;52.12;103848.41;4993696;28;20041;-72
2023/01/25 00:56:22;;;;;;;0.40;0.40;;;;;;;9.27;52.08;103848.84;4994399;28;20046;-73
2023/01/25 00:58:47;;;;;;;0.40;0.40;;;;;;;9.56;51.56;103844.28;4993864;28;20043;-71
2023/01/25 01:01:13;;;;;;;0.30;0.30;;;;;;;9.44;51.71;103847.25;4986034;28;20037;-71
2023/01/25 01:03:39;;;;;;;0.40;0.40;;;;;;;9.25;51.43;103848.16;4974594;28;20113;-72
2023/01/25 01:06:10;;;;;;;0.20;0.20;;;;;;;9.33;52.33;103842.91;4974016;28;20042;-72
2023/01/25 01:08:39;;;;;;;0.20;0.20;;;;;;;9.47;51.73;103845.13;4973863;28;20045;-72
2023/01/25 01:11:07;;;;;;;0.30;0.30;;;;;;;8.96;51.54;103843.78;4974536;28;20085;-72
2023/01/25 01:13:33;;;;;;;0.20;0.20;;;;;;;8.21;54.97;103841.66;4973029;28;20034;-72
2023/01/25 01:16:03;;;;;;;0.30;0.30;;;;;;;9.32;52.11;103841.22;4982819;28;20030;-71
2023/01/25 01:18:34;;;;;;;0.30;0.30;;;;;;;9.56;51.90;103828.16;4994092;28;20363;-71
2023/01/25 01:20:59;;;;;;;0.30;0.30;;;;;;;9.71;50.98;103828.53;4993960;28;20038;-72
2023/01/25 01:23:26;;;;;;;0.43;0.43;;;;;;;9.72;50.90;103833.78;4993292;28;20031;-71
2023/01/25 01:25:52;;;;;;;0.43;0.43;;;;;;;9.37;51.35;103835.41;4993797;28;20427;-71
2023/01/25 01:28:17;;;;;;;0.30;0.30;;;;;;;9.65;51.17;103834.50;4993379;28;20069;-71
2023/01/25 01:30:42;;;;;;;0.40;0.40;;;;;;;9.66;50.85;103831.66;4994124;28;20028;-73
2023/01/25 01:33:08;;;;;;;0.30;0.30;;;;;;;9.45;51.59;103832.84;4993482;28;20042;-73
2023/01/25 01:35:33;;;;;;;0.30;0.30;;;;;;;9.63;50.78;103828.44;4993471;28;20399;-71
2023/01/25 01:37:59;;;;;;;0.30;0.30;;;;;;;8.82;52.51;103834.34;4993260;28;20030;-71
2023/01/25 01:40:25;;;;;;;0.40;0.40;;;;;;;8.32;53.83;103835.38;4991725;28;20037;-72
2023/01/25 01:43:06;;;;;;;0.30;0.30;;;;;;;8.55;53.61;103826.13;4993817;28;20044;-72
2023/01/25 01:45:49;;;;;;;;;;;;;;;9.37;52.11;103827.38;4994258;28;20069;-71
2023/01/25 01:48:19;;;;;;;0.30;0.30;;;;;;;9.28;51.93;103821.00;4993059;28;19917;-71
2023/01/25 01:50:48;;;;;;;0.40;0.40;;;;;;;9.27;51.75;103827.38;4991899;28;20053;-72
2023/01/25 01:53:14;;;;;;;0.50;0.50;;;;;;;9.53;51.28;103815.00;4993125;28;20106;-71
2023/01/25 01:55:39;;;;;;;0.30;0.30;;;;;;;9.61;51.20;103814.31;4992914;28;20093;-72
2023/01/25 01:58:06;;;;;;;0.30;0.30;;;;;;;9.63;51.15;103806.97;4979638;28;20137;-73
2023/01/25 02:00:35;;;;;;;0.32;0.32;;;;;;;9.65;50.72;103804.97;4974028;28;20086;-72
2023/01/25 02:03:01;;;;;;;0.30;0.30;;;;;;;9.56;50.54;103803.16;4971789;28;20046;-72
2023/01/25 02:05:49;;;;;;;0.40;0.40;;;;;;;9.36;52.05;103797.00;4973579;28;20137;-72
2023/01/25 02:08:14;;;;;;;0.40;0.40;;;;;;;9.43;51.41;103806.19;4973049;28;20482;-71
2023/01/25 02:10:41;;;;;;;0.38;0.38;;;;;;;8.96;52.92;103798.19;4972954;28;20049;-72
2023/01/25 02:13:07;;;;;;;0.30;0.30;;;;;;;9.41;51.93;103796.56;4973369;28;20043;-70
2023/01/25 02:15:40;;;;;;;0.40;0.40;;;;;;;9.30;52.14;103804.75;4978469;28;20133;-72
2023/01/25 02:18:08;;;;;;;0.40;0.40;;;;;;;9.27;52.24;103803.25;4992812;28;20034;-71
2023/01/25 02:20:42;;;;;;;0.30;0.30;;;;;;;9.49;51.34;103799.38;4992818;28;20046;-71
2023/01/25 02:23:17;;;;;;;0.30;0.30;;;;;;;9.63;51.50;103794.34;4993158;28;20026;-71
2023/01/25 02:25:42;;;;;;;0.40;0.40;;;;;;;9.16;51.87;103795.34;4993112;28;20034;-70
2023/01/25 02:28:23;;;;;;;0.22;0.22;;;;;;;9.22;52.10;103800.13;4992338;28;20038;-72
2023/01/25 02:30:48;;;;;;;0.50;0.50;;;;;;;9.44;51.72;103791.75;4993108;28;20034;-72
2023/01/25 02:33:14;;;;;;;0.30;0.30;;;;;;;9.51;51.03;103798.22;4992631;28;20085;-71
2023/01/25 02:35:43;;;;;;;0.35;0.35;;;;;;;9.29;51.69;103795.03;4992726;28;20494;-72
2023/01/25 02:38:12;;;;;;;0.32;0.32;;;;;;;9.47;50.80;103794.13;4992717;28;20041;-72
2023/01/25 02:40:44;;;;;;;0.30;0.30;;;;;;;9.06;52.45;103788.31;4992980;28;20034;-73
2023/01/25 02:43:10;;;;;;;0.30;0.30;;;;;;;9.27;51.80;103788.97;4992649;28;20495;-72
2023/01/25 02:45:35;;;;;;;0.50;0.50;;;;;;;9.38;51.28;103784.28;4991758;28;20129;-71
2023/01/25 02:48:01;;;;;;;0.20;0.20;;;;;;;8.66;52.76;103786.63;4992380;28;20072;-73
2023/01/25 02:50:26;;;;;;;0.30;0.30;;;;;;;9.18;52.07;103784.47;4992174;28;20074;-72
2023/01/25 02:52:51;;;;;;;0.30;0.30;;;;;;;9.28;51.38;103782.59;5002774;28;20121;-72
2023/01/25 02:55:17;;;;;;;0.30;0.30;;;;;;;9.52;51.43;103778.44;4992453;28;20045;-73
2023/01/25 02:57:42;;;;;;;0.30;0.30;;;;;;;9.32;51.38;103767.91;4992601;28;20514;-72
2023/01/25 03:00:08;;;;;;;0.38;0.38;;;;;;;9.54;51.05;103759.50;4991876;28;20566;-72
2023/01/25 03:02:34;;;;;;;0.20;0.20;;;;;;;9.49;51.40;103764.47;4991638;28;20038;-72
2023/01/25 03:04:59;;;;;;;0.40;0.40;;;;;;;9.54;51.35;103762.19;4992482;28;20530;-73
2023/01/25 03:07:25;;;;;;;0.30;0.30;;;;;;;9.37;51.94;103750.41;4992325;28;20503;-70
2023/01/25 03:09:50;;;;;;;0.35;0.35;;;;;;;9.23;51.72;103756.22;4993011;28;20042;-72
2023/01/25 03:12:15;;;;;;;0.30;0.30;;;;;;;9.47;51.45;103753.88;4992353;28;20038;-72
2023/01/25 03:14:43;;;;;;;0.30;0.30;;;;;;;9.35;51.33;103744.31;4992068;28;20550;-72
2023/01/25 03:17:08;;;;;;;0.30;0.30;;;;;;;8.91;52.01;103757.53;4995953;28;20096;-71
2023/01/25 03:19:34;;;;;;;0.40;0.40;;;;;;;8.47;53.50;103759.81;4996058;28;20507;-72
2023/01/25 03:21:59;;;;;;;0.32;0.32;;;;;;;8.91;52.49;103757.53;4996237;28;20026;-73
2023/01/25 03:24:24;;;;;;;0.35;0.35;;;;;;;9.05;52.49;103752.59;4995915;28;20030;-72
2023/01/25 03:29:33;;;;;;;0.40;0.40;;;;;;;9.51;50.64;103743.69;4995377;28;20427;-71
2023/01/25 03:31:59;;;;;;;0.28;0.28;;;;;;;9.42;51.00;103737.38;4995395;28;20121;-71
2023/01/25 03:34:24;;;;;;;0.40;0.40;;;;;;;9.33;51.54;103738.25;4994166;28;20438;-73
2023/01/25 03:36:50;;;;;;;0.40;0.40;;;;;;;9.33;51.86;103735.56;4996135;28;20066;-72
2023/01/25 03:39:15;;;;;;;0.30;0.30;;;;;;;9.40;51.82;103731.31;4995771;28;20345;-72
2023/01/25 03:41:40;;;;;;;0.50;0.50;;;;;;;9.05;52.35;103733.81;4995673;28;20062;-71
2023/01/25 03:44:07;;;;;;;0.30;0.30;;;;;;;9.00;52.01;103730.72;4995166;28;20065;-72
2023/01/25 03:46:32;;;;;;;0.30;0.30;;;;;;;9.20;51.71;103726.97;4994825;28;20057;-71
2023/01/25 03:48:58;;;;;;;0.30;0.30;;;;;;;9.26;51.93;103725.53;4995827;28;20436;-71
2023/01/25 03:51:23;;;;;;;0.40;0.40;;;;;;;9.07;51.67;103722.94;4975903;28;20091;-72
2023/01/25 03:53:48;;;;;;;0.20;0.20;;;;;;;9.12;52.00;103721.50;4975940;28;20061;-72
2023/01/25 03:56:18;;;;;;;0.40;0.40;;;;;;;8.91;52.27;103717.31;4975887;28;20312;-72
2023/01/25 03:58:44;;;;;;;0.40;0.40;;;;;;;9.11;52.08;103713.59;4975353;28;20051;-71
2023/01/25 04:01:09;;;;;;;0.22;0.22;;;;;;;8.50;53.44;103716.66;4976105;28;20210;-71
2023/01/25 04:03:35;;;;;;;0.43;0.43;;;;;;;8.64;52.69;103712.69;4976202;28;20547;-72
2023/01/25 04:06:02;;;;;;;0.40;0.40;;;;;;;7.65;55.71;103720.00;4975712;28;20487;-72
2023/01/25 04:08:27;;;;;;;0.25;0.25;;;;;;;7.53;56.08;103713.03;4977512;28;20145;-71
2023/01/25 04:10:55;;;;;;;0.30;0.30;;;;;;;7.90;55.48;103706.97;4994942;28;20122;-71
2023/01/25 04:13:21;;;;;;;0.40;0.40;;;;;;;7.92;54.71;103702.31;4994451;28;20121;-73
2023/01/25 04:15:47;;;;;;;0.30;0.30;;;;;;;8.21;54.00;103688.13;4995192;28;20457;-71
2023/01/25 04:18:12;;;;;;;0.30;0.30;;;;;;;7.68;55.13;103696.50;4994960;28;20054;-72
2023/01/25 04:20:38;;;;;;;0.30;0.30;;;;;;;7.57;55.17;103688.56;4994787;28;20062;-71
2023/01/25 04:23:05;;;;;;;0.30;0.30;;;;;;;7.52;55.71;103696.16;4994463;28;20034;-71
2023/01/25 04:25:31;;;;;;;0.30;0.30;;;;;;;8.20;54.82;103686.41;4994742;28;20061;-74
2023/01/25 04:27:57;;;;;;;0.40;0.40;;;;;;;8.50;53.80;103691.69;4994698;28;20034;-71
2023/01/25 04:30:22;;;;;;;0.30;0.30;;;;;;;8.90;52.38;103692.34;4994690;28;20034;-71
2023/01/25 04:32:47;;;;;;;0.30;0.30;;;;;;;8.13;54.08;103687.97;4994486;28;20048;-71
2023/01/25 04:35:13;;;;;;;0.40;0.40;;;;;;;8.24;53.39;103679.81;4994253;28;20069;-71
2023/01/25 04:37:38;;;;;;;0.40;0.40;;;;;;;7.90;54.58;103682.88;4994414;28;20034;-72
2023/01/25 04:40:04;;;;;;;0.35;0.35;;;;;;;8.53;52.81;103689.56;4994295;28;20030;-72
2023/01/25 04:42:30;;;;;;;0.28;0.28;;;;;;;6.95;57.08;103691.41;4993265;28;20080;-71
2023/01/25 04:44:55;;;;;;;0.30;0.30;;;;;;;7.72;54.80;103697.94;4996438;28;20133;-72
2023/01/25 04:47:20;;;;;;;0.20;0.20;;;;;;;7.63;55.99;103689.84;4974590;28;20038;-72
2023/01/25 04:49:46;;;;;;;0.30;0.30;;;;;;;8.25;53.73;103689.56;4988913;28;20034;-72
2023/01/25 04:52:11;;;;;;;0.40;0.40;;;;;;;8.70;52.87;103688.00;4994198;28;20022;-71
2023/01/25 04:54:36;;;;;;;0.40;0.40;;;;;;;8.73;52.66;103677.84;4994474;28;20042;-72
2023/01/25 04:57:02;;;;;;;0.40;0.40;;;;;;;8.90;52.05;103686.13;4994126;28;20034;-72
2023/01/25 04:59:28;;;;;;;0.40;0.40;;;;;;;8.80;52.19;103678.94;4993769;28;20109;-72
2023/01/25 05:01:53;;;;;;;0.40;0.40;;;;;;;8.28;53.45;103682.09;4990351;28;20053;-72
2023/01/25 05:04:19;;;;;;;0.30;0.30;;;;;;;8.27;54.04;103687.59;4992999;28;20035;-71
2023/01/25 05:06:44;;;;;;;0.38;0.38;;;;;;;8.16;54.33;103679.66;4993748;28;20026;-72
2023/01/25 05:09:09;;;;;;;0.30;0.30;;;;;;;7.75;55.22;103678.03;4993683;28;20042;-72
2023/01/25 05:11:35;;;;;;;0.30;0.30;;;;;;;7.94;54.66;103678.06;4993644;28;20490;-71
2023/01/25 05:14:00;;;;;;;0.60;0.60;;;;;;;7.18;57.78;103672.50;4993018;28;20092;-72
2023/01/25 05:16:25;;;;;;;0.50;0.50;;;;;;;7.85;54.99;103674.41;4993604;28;20030;-72
2023/01/25 05:18:53;;;;;;;0.32;0.32;;;;;;;7.79;54.68;103671.44;4994283;28;20117;-71
2023/01/25 05:24:02;;;;;;;0.40;0.40;;;;;;;7.42;56.75;103675.69;4993991;28;20038;-72
2023/01/25 05:29:11;;;;;;;0.47;0.47;;;;;;;7.93;54.59;103668.38;4993417;28;20046;-71
2023/01/25 05:31:37;;;;;;;0.40;0.40;;;;;;;8.25;53.33;103670.81;4993592;28;20038;-71
2023/01/25 05:34:02;;;;;;;0.35;0.35;;;;;;;8.03;53.98;103671.91;4993664;28;20073;-69
2023/01/25 05:36:27;;;;;;;0.40;0.40;;;;;;;8.43;52.97;103671.81;4993602;28;20035;-72
2023/01/25 05:38:53;;;;;;;0.40;0.40;;;;;;;8.46;52.87;103668.84;4992877;28;20045;-72
2023/01/25 05:41:18;;;;;;;0.30;0.30;;;;;;;8.21;54.07;103666.69;4996885;28;20069;-72
2023/01/25 05:43:47;;;;;;;0.43;0.43;;;;;;;8.13;53.37;103669.22;4993088;28;20038;-70
2023/01/25 05:46:12;;;;;;;0.32;0.32;;;;;;;8.15;53.53;103673.47;4992568;28;20081;-71
2023/01/25 05:48:38;;;;;;;0.30;0.30;;;;;;;7.86;53.87;103673.41;4992868;28;20157;-70
2023/01/25 05:51:04;;;;;;;0.32;0.32;;;;;;;8.27;53.78;103669.72;4991999;28;20100;-71
2023/01/25 05:53:29;;;;;;;0.52;0.52;;;;;;;7.94;54.52;103665.53;4992058;28;20030;-71
2023/01/25 05:55:55;;;;;;;0.30;0.30;;;;;;;7.89;53.78;103678.50;4991600;28;20046;-71
2023/01/25 05:58:20;;;;;;;0.40;0.40;;;;;;;7.64;55.25;103673.69;4991343;28;20061;-71
2023/01/25 06:00:45;;;;;;;0.43;0.43;;;;;;;8.19;53.90;103674.88;4989239;28;20030;-71
2023/01/25 06:03:11;;;;;;;0.40;0.40;;;;;;;7.93;54.40;103671.03;4991303;28;20498;-71
2023/01/25 06:05:36;;;;;;;0.40;0.40;;;;;;;7.85;54.52;103666.38;4991466;28;20070;-72
2023/01/25 06:08:02;;;;;;;0.40;0.40;;;;;;;7.88;54.71;103670.63;4991529;28;20129;-70
2023/01/25 06:10:27;;;;;;;0.40;0.40;;;;;;;7.94;54.43;103672.72;4992732;28;20034;-71
2023/01/25 06:12:59;;;;;;;0.40;0.40;;;;;;;7.20;56.51;103675.88;4993172;28;20047;-71
2023/01/25 06:15:25;;;;;;;0.40;0.40;;;;;;;7.34;55.87;103676.38;4992805;28;20065;-71
2023/01/25 06:17:54;;;;;;;0.35;0.35;;;;;;;7.94;54.01;103678.06;4991235;28;20137;-71
2023/01/25 06:20:19;;;;;;;0.40;0.40;;;;;;;8.32;53.16;103674.63;4992659;28;20038;-70
2023/01/25 06:22:49;;;;;;;0.32;0.32;;;;;;;7.40;55.14;103674.97;4992744;28;20038;-72
2023/01/25 06:25:15;;;;;;;0.38;0.38;;;;;;;7.81;54.44;103674.81;4992538;28;20113;-71
2023/01/25 06:27:40;;;;;;;0.40;0.40;;;;;;;7.09;56.74;103666.97;4993018;28;20505;-71
2023/01/25 06:30:06;;;;;;;0.38;0.38;;;;;;;7.62;55.33;103666.75;4992521;28;20078;-71
2023/01/25 06:32:32;;;;;;;0.30;0.30;;;;;;;7.18;55.71;103662.66;4992020;28;20065;-72
2023/01/25 06:34:57;;;;;;;0.40;0.40;;;;;;;7.80;54.24;103662.44;4992411;28;20121;-71
2023/01/25 06:37:23;;;;;;;0.30;0.30;;;;;;;7.96;53.43;103671.59;4994927;28;20168;-72
2023/01/25 06:39:48;;;;;;;0.40;0.40;;;;;;;7.79;54.00;103666.94;4974340;28;20049;-72
2023/01/25 06:42:14;;;;;;;0.50;0.50;;;;;;;8.12;53.52;103670.22;4975126;28;20065;-72
2023/01/25 06:44:57;;;;;;;0.45;0.45;;;;;;;6.93;56.32;103671.13;4973098;28;20066;-71
2023/01/25 06:47:23;;;;;;;0.30;0.30;;;;;;;6.86;57.31;103672.63;4984310;28;20042;-72
2023/01/25 06:49:48;;;;;;;0.30;0.30;;;;;;;6.87;57.42;103671.63;4992526;28;20395;-71
2023/01/25 06:52:13;;;;;;;0.35;0.35;;;;;;;6.83;57.84;103676.41;4996022;28;20073;-72
2023/01/25 06:54:40;;;;;;;0.57;0.57;;;;;;;6.95;56.93;103678.03;4996874;28;20042;-72
2023/01/25 06:57:05;;;;;;;0.50;0.50;;;;;;;7.55;55.20;103674.47;4996339;28;20034;-72
2023/01/25 06:59:30;;;;;;;0.32;0.32;;;;;;;7.69;54.21;103671.41;4992198;28;20050;-70
2023/01/25 07:01:56;;;;;;;0.40;0.40;;;;;;;7.03;56.00;103678.22;4995678;28;20467;-72
2023/01/25 07:04:21;;;;;;;0.30;0.30;;;;;;;7.98;53.62;103669.63;4995836;28;20184;-71
2023/01/25 07:06:46;;;;;;;0.40;0.40;;;;;;;7.92;54.38;103674.72;4996565;28;20042;-72
2023/01/25 07:09:13;;;;;;;0.50;0.50;;;;;;;7.61;54.87;103667.72;4995391;28;20042;-72
2023/01/25 07:11:38;;;;;;;0.30;0.30;;;;;;;6.68;57.69;103668.84;4994762;28;20042;-72
2023/01/25 07:14:05;;;;;;;0.30;0.30;;;;;;;7.28;55.85;103652.84;4995758;28;20058;-72
2023/01/25 07:16:35;;;;;;;0.43;0.43;;;;;;;7.55;55.33;103657.56;4995110;28;20026;-71
2023/01/25 07:19:05;;;;;;;0.30;0.30;;;;;;;8.02;53.97;103646.94;4994818;28;20510;-71
2023/01/25 07:21:30;;;;;;;0.40;0.40;;;;;;;7.49;55.70;103653.63;4995193;28;20050;-71
2023/01/25 07:24:01;;;;;;;0.32;0.32;;;;;;;7.26;55.67;103652.13;4995639;28;20038;-72
2023/01/25 07:26:27;;;;;;;0.30;0.30;;;;;;;8.08;54.33;103647.41;4995764;28;20042;-72
2023/01/25 07:28:54;;;;;;;0.40;0.40;;;;;;;7.56;55.40;103646.75;4995336;28;20506;-72
2023/01/25 07:31:20;;;;;;;0.50;0.50;;;;;;;7.99;54.49;103647.25;4995225;28;20026;-72
2023/01/25 07:33:50;;;;;;;0.50;0.50;;;;;;;7.49;55.43;103645.59;4995712;28;20161;-73
2023/01/25 07:36:16;;;;;;;0.40;0.40;;;;;;;7.57;55.23;103643.06;4995641;28;20041;-72
2023/01/25 07:38:41;;;;;;;0.32;0.32;;;;;;;7.10;56.36;103635.72;4995653;28;20039;-72
2023/01/25 07:41:07;;;;;;;0.38;0.38;;;;;;;7.83;54.68;103636.22;4995331;28;20099;-72
2023/01/25 07:43:32;;;;;;;0.40;0.40;;;;;;;8.04;53.82;103636.09;4995560;28;20038;-71
2023/01/25 07:46:12;;;;;;;0.40;0.40;;;;;;;7.41;55.37;103640.06;4995629;28;20084;-71
2023/01/25 07:48:47;;;;;;;0.40;0.40;;;;;;;7.52;55.78;103636.44;4995757;28;20073;-71
2023/01/25 07:51:33;;;;;;;0.30;0.30;;;;;;;6.36;58.83;103638.66;4994588;28;20038;-72
2023/01/25 07:53:59;;;;;;;0.40;0.40;;;;;;;6.45;59.39;103635.22;5021692;28;20048;-71
2023/01/25 07:56:39;;;;;;;0.38;0.38;;;;;;;7.16;56.79;103634.34;4994675;28;20479;-71
2023/01/25 07:59:07;;;;;;;0.40;0.40;;;;;;;7.56;55.45;103630.69;4989182;28;20034;-71
2023/01/25 08:01:33;;;;;;;0.30;0.30;;;;;;;8.11;54.07;103623.00;4991458;28;20117;-72
2023/01/25 08:03:59;;;;;;;0.30;0.30;;;;;;;8.02;54.39;103623.84;4987142;28;20036;-72
2023/01/25 08:06:33;;;;;;;0.55;0.55;;;;;;;7.75;54.66;103624.53;4985698;28;20093;-71
2023/01/25 08:08:59;;;;;;;0.47;0.47;;;;;;;7.96;54.80;103620.75;4987961;28;20089;-71
2023/01/25 08:11:27;;;;;;;0.40;0.40;;;;;;;7.60;55.87;103617.88;4985613;28;20125;-69
2023/01/25 08:13:53;;;;;;;0.40;0.40;;;;;;;7.02;57.05;103620.38;4991186;28;20046;-72
2023/01/25 08:16:21;;;;;;;0.65;0.65;;;;;;;7.99;54.81;103619.63;4991682;28;20052;-70
2023/01/25 08:18:49;;;;;;;0.47;0.47;;;;;;;8.34;53.71;103613.72;4991727;28;20112;-70
2023/01/25 08:21:14;;;;;;;0.30;0.30;;;;;;;7.55;55.64;103612.06;4991923;28;20050;-72
2023/01/25 08:23:39;;;;;;;0.40;0.40;;;;;;;7.64;55.49;103617.47;4990956;28;20034;-71
2023/01/25 08:26:07;;;;;;;0.45;0.45;;;;;;;7.87;54.95;103621.59;4991521;28;20030;-71
2023/01/25 08:28:32;;;;;;;0.50;0.50;;;;;;;7.21;56.81;103614.25;4987163;28;20316;-71
2023/01/25 08:31:08;;;;;;;0.50;0.50;;;;;;;7.01;57.70;103612.50;4992121;28;20074;-71
2023/01/25 08:33:34;;;;;;;0.40;0.40;;;;;;;6.65;58.93;103619.19;4990242;28;20113;-70
2023/01/25 08:36:01;;;;;;;0.40;0.40;;;;;;;7.30;57.31;103621.47;4988076;28;20038;-71
2023/01/25 08:38:27;;;;;;;0.50;0.50;;;;;;;6.30;59.58;103621.34;4991246;28;20093;-70
2023/01/25 08:40:52;;;;;;;0.40;0.40;;;;;;;6.94;57.96;103619.34;4991506;28;20035;-71
2023/01/25 08:43:17;;;;;;;0.30;0.30;;;;;;;6.95;58.43;103619.22;4991523;28;20044;-70
2023/01/25 08:45:43;;;;;;;0.40;0.40;;;;;;;7.20;56.81;103615.22;4991818;28;20027;-72
2023/01/25 08:48:09;;;;;;;0.40;0.40;;;;;;;5.57;61.02;103615.03;4990713;28;20525;-72
2023/01/25 08:50:34;;;;;;;0.50;0.50;;;;;;;6.05;59.87;103617.19;4991644;28;20143;-72
2023/01/25 08:53:00;;;;;;;0.40;0.40;;;;;;;6.85;58.68;103601.44;4990124;28;20034;-71
2023/01/25 08:55:25;;;;;;;0.35;0.35;;;;;;;6.51;58.89;103605.31;4990577;28;20042;-70
2023/01/25 08:57:50;;;;;;;0.40;0.40;;;;;;;7.06;57.64;103602.22;4951976;28;1112488;-71
2023/01/25 09:00:16;;;;;;;0.43;0.43;;;;;;;6.83;57.57;103596.22;4991973;28;20034;-72
2023/01/25 09:02:42;;;;;;;0.30;0.30;;;;;;;6.69;58.05;103603.72;4990020;28;20041;-71
2023/01/25 09:05:07;;;;;;;0.60;0.60;;;;;;;6.70;58.21;103592.91;4991319;28;20035;-70
2023/01/25 09:07:37;;;;;;;0.40;0.40;;;;;;;6.73;58.51;103597.16;4992008;28;20088;-69
2023/01/25 09:10:07;;;;;;;0.30;0.30;;;;;;;7.06;57.42;103588.84;4992935;28;20034;-68
2023/01/25 09:12:33;;;;;;;0.60;0.60;;;;;;;6.26;59.21;103589.69;4991453;28;20033;-70
2023/01/25 09:14:58;;;;;;;0.47;0.47;;;;;;;6.36;59.56;103583.44;4990249;28;20044;-70
2023/01/25 09:17:23;;;;;;;0.30;0.30;;;;;;;6.43;59.79;103578.44;4991853;28;20064;-70
2023/01/25 09:19:49;;;;;;;0.40;0.40;;;;;;;6.72;58.46;103574.91;4991783;28;20041;-71
2023/01/25 09:22:14;;;;;;;0.30;0.30;;;;;;;6.88;57.76;103571.75;4991613;28;20422;-70
2023/01/25 09:24:39;;;;;;;0.38;0.38;;;;;;;6.36;59.53;103572.75;4992708;28;20117;-70
2023/01/25 09:27:05;;;;;;;0.47;0.47;;;;;;;6.66;58.33;103571.94;4994873;28;20145;-71
2023/01/25 09:29:30;;;;;;;0.40;0.40;;;;;;;7.54;56.28;103578.28;4991309;28;20068;-71
2023/01/25 09:31:55;;;;;;;0.40;0.40;;;;;;;7.48;56.30;103568.16;4991524;28;20552;-71
2023/01/25 09:34:21;;;;;;;0.50;0.50;;;;;;;6.72;57.84;103566.06;4991504;28;20026;-71
2023/01/25 09:36:46;;;;;;;0.40;0.40;;;;;;;7.13;56.96;103557.94;4991090;28;20038;-69
2023/01/25 09:39:12;;;;;;;0.50;0.50;;;;;;;7.98;54.67;103559.84;4990486;28;20133;-71
2023/01/25 09:41:50;;;;;;;0.40;0.40;;;;;;;7.39;56.76;103566.31;4991329;28;20164;-70
2023/01/25 09:44:52;;;;;;;0.43;0.43;;;;;;;7.27;57.02;103570.06;4991626;28;20499;-72
2023/01/25 09:47:24;;;;;;;0.50;0.50;;;;;;;5.93;61.56;103570.22;4990827;28;20069;-71
2023/01/25 09:50:08;;;;;;;0.60;0.60;;;;;;;6.56;60.30;103557.69;4989943;28;20045;-72
2023/01/25 09:53:04;;;;;;;0.50;0.50;;;;;;;5.89;62.34;103560.75;4986335;28;20034;-70
2023/01/25 09:55:32;;;;;;;0.40;0.40;;;;;;;5.34;64.36;103568.91;4988392;28;20042;-71
2023/01/25 09:58:01;;;;;;;0.40;0.40;;;;;;;6.00;61.71;103565.19;4991622;28;20487;-72
2023/01/25 10:00:26;;;;;;;0.30;0.30;;;;;;;5.94;61.54;103571.88;4989510;28;21174;-73
2023/01/25 10:03:01;;;;;;;0.50;0.50;;;;;;;5.50;62.92;103564.03;4990083;28;20049;-71
2023/01/25 10:05:31;;;;;;;0.50;0.50;;;;;;;6.42;60.81;103556.22;4984111;28;20124;-72
2023/01/25 10:07:59;;;;;;;0.60;0.60;;;;;;;6.85;59.01;103558.66;4982970;28;20403;-70
2023/01/25 10:10:42;;;;;;;0.30;0.30;;;;;;;6.45;60.76;103553.25;4987791;28;20034;-70
2023/01/25 10:13:13;;;;;;;0.40;0.40;;;;;;;6.21;61.50;103548.19;4985302;28;20389;-70
2023/01/25 10:16:04;;;;;;;0.50;0.50;;;;;;;6.86;59.95;103544.34;4988032;28;20273;-70
2023/01/25 10:18:47;;;;;;;0.50;0.50;;;;;;;6.21;62.27;103544.69;4985820;28;20473;-70
2023/01/25 10:21:35;;;;;;;0.40;0.40;;;;;;;6.36;61.18;103522.03;4987527;28;20062;-71
2023/01/25 10:24:23;;;;;;;0.50;0.50;;;;;;;5.64;62.73;103522.88;4981159;28;20589;-71
2023/01/25 10:26:56;;;;;;;0.40;0.40;;;;;;;6.75;60.46;103517.69;4984059;28;20170;-73
2023/01/25 10:29:26;;;;;;;0.40;0.40;;;;;;;6.66;60.54;103507.81;4987765;28;20530;-71
2023/01/25 10:32:00;;;;;;;0.32;0.32;;;;;;;7.41;58.22;103502.81;4986563;28;20105;-71
2023/01/25 10:34:31;;;;;;;0.60;0.60;;;;;;;7.19;58.88;103506.59;4985781;28;20042;-70
2023/01/25 10:37:03;;;;;;;0.30;0.30;;;;;;;7.10;58.28;103500.22;4987034;28;20479;-73
2023/01/25 10:39:31;;;;;;;0.40;0.40;;;;;;;6.93;59.31;103498.22;4987158;28;20061;-72
2023/01/25 10:42:06;;;;;;;0.47;0.47;;;;;;;6.80;59.89;103494.94;4987823;28;20394;-72
2023/01/25 10:44:32;;;;;;;0.50;0.50;;;;;;;6.23;60.20;103486.66;4987696;28;20352;-72
2023/01/25 10:46:57;;;;;;;0.50;0.50;;;;;;;6.44;60.58;103484.81;4985733;28;20034;-70
2023/01/25 10:49:44;;;;;;;0.30;0.30;;;;;;;6.19;60.65;103486.06;4987302;28;20520;-71
2023/01/25 10:52:22;;;;;;;0.45;0.45;;;;;;;5.59;63.51;103487.72;4983759;28;20054;-70
2023/01/25 10:55:04;;;;;;;0.50;0.50;;;;;;;6.13;61.73;103485.78;4987797;28;20069;-71
2023/01/25 10:57:31;;;;;;;0.50;0.50;;;;;;;5.88;63.25;103475.47;4983588;28;20053;-70
2023/01/25 10:59:59;;;;;;;0.45;0.45;;;;;;;5.94;62.84;103478.47;4987853;28;20475;-71
2023/01/25 11:02:27;;;;;;;0.38;0.38;;;;;;;6.18;62.14;103467.53;4986664;28;20364;-71
2023/01/25 11:04:53;;;;;;;0.47;0.47;;;;;;;6.45;60.67;103465.13;4986324;28;20045;-71
2023/01/25 11:07:26;;;;;;;0.47;0.47;;;;;;;6.31;61.97;103459.31;4987439;28;20042;-71
2023/01/25 11:09:52;;;;;;;0.30;0.30;;;;;;;6.49;60.11;103449.66;4987891;28;20040;-70
2023/01/25 11:12:19;;;;;;;0.40;0.40;;;;;;;6.85;59.22;103444.59;4986312;28;20042;-71
2023/01/25 11:14:48;;;;;;;0.40;0.40;;;;;;;6.45;60.10;103449.09;5002089;28;20421;-71
2023/01/25 11:17:24;;;;;;;0.50;0.50;;;;;;;6.17;61.37;103439.16;4985538;28;20034;-71
2023/01/25 11:20:19;;;;;;;0.40;0.40;;;;;;;6.53;61.43;103429.72;4987517;28;20046;-71
2023/01/25 11:22:53;;;;;;;0.40;0.40;;;;;;;7.15;59.05;103419.59;4984910;28;20057;-71
2023/01/25 11:25:30;;;;;;;0.50;0.50;;;;;;;6.94;59.39;103413.50;4982021;28;20106;-70
2023/01/25 11:28:22;;;;;;;0.30;0.30;;;;;;;6.65;59.34;103412.63;4982485;28;20038;-71
2023/01/25 11:30:48;;;;;;;;;;;;;;;6.70;59.70;103405.06;4983899;28;20050;-71
2023/01/25 11:33:15;;;;;;;0.43;0.43;;;;;;;7.09;58.39;103394.25;4985830;28;19914;-71
2023/01/25 11:35:53;;;;;;;0.30;0.30;;;;;;;6.71;59.61;103396.03;4985075;28;20069;-71
2023/01/25 11:38:22;;;;;;;0.70;0.70;;;;;;;5.56;62.86;103390.19;4990021;28;20046;-71
2023/01/25 11:41:08;;;;;;;0.30;0.30;;;;;;;6.95;59.13;103380.47;4989874;28;20043;-73
2023/01/25 11:44:14;;;;;;;0.47;0.47;;;;;;;7.35;58.07;103373.13;4987564;28;20040;-71
2023/01/25 11:46:50;;;;;;;0.47;0.47;;;;;;;6.46;59.88;103376.03;4989801;28;20042;-71